Time;durP1;ratioP1;P1;durP2;ratioP2;P2;SDS_P1;SDS_P2;PMS_P1;PMS_P2;Temp;Humidity;BMP_temperature;BMP_pressure;BME280_temperature;BME280_humidity;BME280_pressure;Samples;Min_cycle;Max_cycle;Signal;HPM_P1;HPM_P2
2023/07/21 00:01:08;;;;;;;;;2.00;2.00;;;;;22.18;48.83;100578.69;4830114;29;45787;-85
2023/07/21 00:03:35;;;;;;;;;2.00;2.00;;;;;22.08;48.46;100569.13;4845573;29;44925;-85
2023/07/21 00:06:09;;;;;;;;;2.00;2.00;;;;;21.99;48.77;100540.53;4831321;29;45475;-86
2023/07/21 00:08:38;;;;;;;;;3.00;3.00;;;;;22.13;48.56;100564.41;4846594;29;47700;-86
2023/07/21 00:11:04;;;;;;;;;3.67;3.67;;;;;22.11;49.10;100560.88;4833607;29;45395;-85
2023/07/21 00:13:36;;;;;;;;;2.00;2.00;;;;;21.91;48.57;100529.09;4845985;29;44823;-86
2023/07/21 00:16:05;;;;;;;;;3.33;3.33;;;;;21.92;48.55;100533.59;4847559;29;45272;-85
2023/07/21 00:18:32;;;;;;;;;3.00;3.00;;;;;22.04;48.80;100557.50;4846717;29;47183;-86
2023/07/21 00:20:59;;;;;;;;;2.00;2.00;;;;;22.09;48.79;100574.47;4846769;29;44888;-84
2023/07/21 00:23:26;;;;;;;;;3.00;3.00;;;;;21.99;49.21;100559.50;4846030;29;45425;-85
2023/07/21 00:25:52;;;;;;;;;3.67;3.33;;;;;21.91;49.21;100546.22;4847044;29;44875;-87
2023/07/21 00:28:17;;;;;;;;;2.33;2.33;;;;;21.93;49.23;100562.41;4846719;29;46890;-85
2023/07/21 00:36:41;;;;;;;;;3.00;3.00;;;;;21.94;49.22;100565.09;5160299;23;45012;-86
2023/07/21 00:39:06;;;;;;;;;2.00;2.00;;;;;21.69;49.27;100538.00;4862419;29;45539;-86
2023/07/21 00:41:32;;;;;;;;;5.33;3.67;;;;;21.75;49.26;100548.63;4864562;29;44694;-86
2023/07/21 00:44:09;;;;;;;;;5.00;4.00;;;;;21.90;49.72;100568.84;4863792;29;44751;-85
2023/07/21 00:46:36;;;;;;;;;3.00;3.00;;;;;21.71;49.84;100555.09;4864981;29;44925;-86
2023/07/21 00:49:02;;;;;;;;;2.67;2.67;;;;;21.59;49.90;100552.78;4864984;29;45427;-86
2023/07/21 00:51:28;;;;;;;;;2.00;2.00;;;;;21.72;49.95;100580.31;4865334;29;44866;-87
2023/07/21 00:53:54;;;;;;;;;4.00;3.25;;;;;21.60;49.49;100559.09;4848461;29;45005;-86
2023/07/21 00:56:19;;;;;;;;;3.00;3.00;;;;;21.49;49.52;100541.41;4862737;29;44970;-85
2023/07/21 00:58:45;;;;;;;;;3.00;1.00;;;;;21.57;49.38;100552.84;4863479;29;47282;-86
2023/07/21 01:01:10;;;;;;;;;2.33;2.33;;;;;21.46;49.83;100541.50;4848013;29;44957;-86
2023/07/21 01:03:41;;;;;;;;;2.25;2.25;;;;;21.43;50.07;100540.72;4863045;29;45402;-86
2023/07/21 01:06:09;;;;;;;;;2.00;2.00;;;;;21.34;49.78;100536.47;4848105;29;45325;-86
2023/07/21 01:08:37;;;;;;;;;2.67;2.67;;;;;21.23;49.83;100533.22;4847898;29;45297;-86
2023/07/21 01:11:03;;;;;;;;;2.00;2.00;;;;;21.38;49.90;100565.19;4846286;29;44755;-86
2023/07/21 01:13:31;;;;;;;;;1.00;1.00;;;;;21.13;50.21;100530.84;4848783;29;45186;-86
2023/07/21 01:16:01;;;;;;;;;1.00;1.00;;;;;21.02;50.87;100546.53;4861099;29;44894;-86
2023/07/21 01:18:27;;;;;;;;;1.00;1.00;;;;;21.00;50.63;100558.34;4861320;29;45434;-86
2023/07/21 01:20:53;;;;;;;;;4.00;2.00;;;;;20.89;51.73;100555.97;4845857;29;44905;-87
2023/07/21 01:23:41;;;;;;;;;3.67;2.00;;;;;21.02;53.04;100583.50;4844687;29;45212;-86
2023/07/21 01:26:13;;;;;;;;;2.00;2.00;;;;;20.64;53.75;100555.84;4846324;29;44853;-86
2023/07/21 01:28:40;;;;;;;;;1.33;1.33;;;;;20.54;54.48;100549.78;4860622;29;45842;-86
2023/07/21 01:31:06;;;;;;;;;3.67;2.00;;;;;20.45;55.63;100566.28;4843436;29;45402;-86
2023/07/21 01:33:32;;;;;;;;;2.00;1.33;;;;;20.09;57.09;100542.13;4841681;29;44977;-85
2023/07/21 01:36:03;;;;;;;;;2.33;2.33;;;;;20.08;78.27;100579.03;4861953;29;44741;-86
2023/07/21 01:38:30;;;;;;;;;2.00;2.00;;;;;19.73;78.39;100534.09;4847022;29;47354;-86
2023/07/21 01:40:55;;;;;;;;;3.00;3.00;;;;;19.97;68.98;100560.41;4862461;29;45262;-85
2023/07/21 01:43:23;;;;;;;;;2.00;2.00;;;;;19.92;64.87;100518.31;4863524;29;44799;-86
2023/07/21 01:45:52;;;;;;;;;4.00;3.00;;;;;20.02;62.26;100519.81;4862973;29;45168;-85
2023/07/21 01:48:17;;;;;;;;;3.67;2.00;;;;;20.07;62.44;100533.19;4861801;29;46960;-85
2023/07/21 01:50:46;;;;;;;;;3.67;3.67;;;;;19.98;62.05;100501.94;4845280;29;44728;-85
2023/07/21 01:53:18;;;;;;;;;4.00;4.00;;;;;20.21;62.08;100540.88;4847722;29;44816;-85
2023/07/21 01:55:55;;;;;;;;;3.00;3.00;;;;;20.26;62.40;100557.81;4845672;29;44827;-85
2023/07/21 01:58:21;;;;;;;;;4.67;3.33;;;;;19.97;62.58;100519.03;4862271;29;47168;-85
2023/07/21 02:00:48;;;;;;;;;1.33;1.33;;;;;20.14;62.88;100543.75;4846355;29;45211;-85
2023/07/21 02:03:16;;;;;;;;;3.33;3.33;;;;;20.27;62.23;100546.97;4862242;29;44928;-85
2023/07/21 02:05:41;;;;;;;;;5.00;5.00;;;;;20.19;62.89;100532.81;4831657;29;44943;-86
2023/07/21 02:08:10;;;;;;;;;3.00;3.00;;;;;20.27;62.49;100538.00;4846079;29;46922;-86
2023/07/21 02:10:40;;;;;;;;;4.00;4.00;;;;;20.10;62.33;100490.78;4844691;29;44872;-86
2023/07/21 02:13:06;;;;;;;;;2.00;2.00;;;;;20.16;61.85;100506.81;4859939;29;45294;-86
2023/07/21 02:15:32;;;;;;;;;3.00;3.00;;;;;20.24;61.97;100529.97;4844626;29;44823;-86
2023/07/21 02:17:58;;;;;;;;;3.67;3.33;;;;;20.24;61.94;100528.19;4845517;29;47185;-86
2023/07/21 02:27:07;;;;;;;;;3.00;3.00;;;;;20.28;63.23;100545.16;4861203;29;44722;-86
2023/07/21 02:29:32;;;;;;;;;3.00;3.00;;;;;20.28;62.12;100537.97;4860066;29;45211;-84
2023/07/21 02:31:59;;;;;;;;;3.00;3.00;;;;;20.32;61.28;100527.94;4861193;29;44770;-85
2023/07/21 02:34:24;;;;;;;;;3.33;3.33;;;;;20.34;61.69;100544.97;4846542;29;44855;-85
2023/07/21 02:36:50;;;;;;;;;3.00;2.00;;;;;20.29;62.00;100536.16;4850992;29;44943;-85
2023/07/21 02:39:15;;;;;;;;;5.00;4.00;;;;;20.24;63.20;100555.19;4860302;29;45618;-86
2023/07/21 02:41:41;;;;;;;;;3.00;3.00;;;;;20.12;62.61;100533.94;4863252;29;44789;-84
2023/07/21 02:44:06;;;;;;;;;4.00;3.00;;;;;20.13;63.00;100544.69;4861920;29;44998;-86
2023/07/21 02:46:32;;;;;;;;;3.67;3.67;;;;;20.09;63.13;100532.19;4858563;29;44933;-86
2023/07/21 02:48:58;;;;;;;;;3.00;3.00;;;;;20.10;63.75;100542.09;4860922;29;46966;-85
2023/07/21 02:51:23;;;;;;;;;2.00;2.00;;;;;20.09;62.86;100534.91;4860769;29;44910;-86
2023/07/21 02:53:49;;;;;;;;;2.67;2.67;;;;;20.14;63.32;100541.06;4860069;29;45185;-86
2023/07/21 02:56:15;;;;;;;;;3.33;3.33;;;;;20.16;62.31;100544.59;4862070;29;44773;-85
2023/07/21 02:58:41;;;;;;;;;3.00;3.00;;;;;20.16;61.95;100550.00;4860050;29;45008;-85
2023/07/21 03:01:09;;;;;;;;;2.00;2.00;;;;;20.13;61.76;100538.41;4862304;29;44887;-85
2023/07/21 03:03:41;;;;;;;;;3.00;3.00;;;;;20.16;61.32;100531.09;4859577;29;45507;-85
2023/07/21 03:06:07;;;;;;;;;3.33;3.33;;;;;20.10;61.83;100538.50;4859670;29;44840;-85
2023/07/21 03:08:35;;;;;;;;;5.00;3.67;;;;;20.13;62.41;100528.47;4859502;29;47208;-85
2023/07/21 03:11:02;;;;;;;;;4.33;3.67;;;;;19.90;62.05;100498.56;4861497;29;44738;-85
2023/07/21 03:13:28;;;;;;;;;4.00;4.00;;;;;19.89;62.51;100518.38;4859581;29;44754;-86
2023/07/21 03:15:53;;;;;;;;;5.00;5.00;;;;;20.05;63.34;100553.94;4860115;29;44881;-85
2023/07/21 03:18:22;;;;;;;;;4.00;4.00;;;;;19.72;63.26;100495.44;4859476;29;45595;-85
2023/07/21 03:20:49;;;;;;;;;3.33;3.33;;;;;19.55;63.92;100492.28;4858458;29;44828;-85
2023/07/21 03:23:14;;;;;;;;;4.00;4.00;;;;;19.82;63.68;100549.19;4860174;29;44820;-85
2023/07/21 03:25:43;;;;;;;;;4.00;4.00;;;;;19.86;64.31;100550.88;4859187;29;44937;-85
2023/07/21 03:28:08;;;;;;;;;5.00;3.33;;;;;19.58;64.18;100514.69;4859438;29;47305;-86
2023/07/21 03:30:34;;;;;;;;;3.00;3.00;;;;;19.46;64.22;100484.47;4859242;29;44731;-85
2023/07/21 03:32:59;;;;;;;;;3.00;3.00;;;;;19.49;64.67;100503.25;4858857;29;44844;-86
2023/07/21 03:39:13;;;;;;;;;5.00;5.00;;;;;19.77;64.19;100534.00;4858985;29;44920;-86
2023/07/21 03:41:38;;;;;;;;;3.00;3.00;;;;;19.71;63.44;100544.97;4842885;29;45138;-84
2023/07/21 03:44:04;;;;;;;;;6.00;4.33;;;;;19.60;63.82;100555.09;4843918;29;44776;-85
2023/07/21 03:46:30;;;;;;;;;6.00;4.33;;;;;19.51;64.44;100556.25;4842919;29;44846;-85
2023/07/21 03:48:58;;;;;;;;;3.00;3.00;;;;;19.51;64.89;100555.34;4843092;29;45349;-86
2023/07/21 03:51:24;;;;;;;;;3.67;3.67;;;;;19.44;65.29;100561.81;4844696;29;44855;-85
2023/07/21 03:53:50;;;;;;;;;1.33;1.33;;;;;19.43;64.49;100560.03;4861635;29;45281;-85
2023/07/21 03:56:16;;;;;;;;;4.67;4.33;;;;;19.35;64.97;100561.13;4843438;29;44873;-86
2023/07/21 03:58:42;;;;;;;;;4.00;4.00;;;;;19.28;64.77;100554.09;4840894;29;46752;-86
2023/07/21 04:01:08;;;;;;;;;5.00;5.00;;;;;19.31;65.45;100559.44;4841456;29;44834;-86
2023/07/21 04:03:33;;;;;;;;;4.67;4.67;;;;;19.28;65.91;100564.91;4842304;29;44964;-86
2023/07/21 04:06:05;;;;;;;;;3.67;3.67;;;;;19.28;65.54;100554.09;4859212;29;44821;-87
2023/07/21 04:08:30;;;;;;;;;5.00;4.00;;;;;19.19;66.34;100554.34;4842536;29;47346;-86
2023/07/21 04:10:55;;;;;;;;;3.00;3.00;;;;;19.13;65.81;100543.72;4842677;29;45337;-86
2023/07/21 04:13:21;;;;;;;;;5.67;5.67;;;;;19.22;66.31;100554.25;4842627;29;45390;-86
2023/07/21 04:15:51;;;;;;;;;4.67;4.67;;;;;19.32;67.05;100558.50;4859657;29;45333;-85
2023/07/21 04:18:16;;;;;;;;;4.00;3.00;;;;;19.24;66.90;100544.31;4840910;29;45134;-86
2023/07/21 04:20:44;;;;;;;;;3.67;3.67;;;;;19.25;67.32;100546.13;4841877;29;44764;-85
2023/07/21 04:23:10;;;;;;;;;2.67;2.33;;;;;19.34;67.54;100558.47;4840621;29;44850;-85
2023/07/21 04:25:36;;;;;;;;;6.00;5.00;;;;;19.40;67.85;100558.31;4856955;29;44801;-85
2023/07/21 04:28:05;;;;;;;;;6.00;6.00;;;;;19.17;67.91;100540.03;4856775;29;45883;-86
2023/07/21 04:30:31;;;;;;;;;4.00;4.00;;;;;19.24;68.45;100563.19;4842052;29;45075;-84
2023/07/21 04:32:58;;;;;;;;;4.33;4.00;;;;;19.25;67.64;100565.00;4841187;29;45334;-85
2023/07/21 04:35:24;;;;;;;;;4.00;4.00;;;;;19.16;67.97;100532.84;4842866;29;44918;-86
2023/07/21 04:38:12;;;;;;;;;4.00;4.00;;;;;19.38;67.72;100557.47;4847187;29;47634;-86
2023/07/21 04:40:38;;;;;;;;;5.00;5.00;;;;;19.29;68.44;100536.13;4855497;29;44898;-85
2023/07/21 04:43:05;;;;;;;;;4.00;4.00;;;;;19.26;67.87;100511.94;4859826;29;44805;-86
2023/07/21 04:45:31;;;;;;;;;4.00;4.00;;;;;19.44;67.54;100543.81;4861113;29;45566;-85
2023/07/21 04:47:59;;;;;;;;;4.00;4.00;;;;;19.44;66.02;100529.47;4861741;29;46772;-85
2023/07/21 04:50:24;;;;;;;;;5.00;5.00;;;;;19.37;65.88;100509.88;4860495;29;44841;-85
2023/07/21 04:52:53;;;;;;;;;3.00;3.00;;;;;19.62;65.16;100550.56;4862649;29;44765;-85
2023/07/21 04:55:19;;;;;;;;;5.00;5.00;;;;;19.54;64.90;100536.38;4862094;29;44929;-86
2023/07/21 04:57:44;;;;;;;;;5.00;3.67;;;;;19.50;65.64;100523.91;4860733;29;46748;-85
2023/07/21 05:00:12;;;;;;;;;3.00;3.00;;;;;19.54;65.63;100518.38;4875323;29;44934;-85
2023/07/21 05:02:38;;;;;;;;;4.00;2.67;;;;;19.67;65.38;100539.63;4861956;29;44715;-85
2023/07/21 05:05:05;;;;;;;;;3.33;3.33;;;;;19.56;65.33;100516.53;4930687;23;46240;-85
2023/07/21 05:07:30;;;;;;;;;6.00;6.00;;;;;19.61;65.04;100524.50;4878319;29;46951;-85
2023/07/21 05:10:01;;;;;;;;;5.00;4.00;;;;;19.77;65.01;100533.09;4880319;29;44755;-84
2023/07/21 05:12:27;;;;;;;;;3.00;3.00;;;;;19.74;64.78;100528.69;4881335;29;44891;-85
2023/07/21 05:14:52;;;;;;;;;6.00;5.67;;;;;19.64;64.41;100519.03;4880548;29;44798;-86
2023/07/21 05:17:18;;;;;;;;;5.00;4.00;;;;;19.75;64.91;100532.25;4879529;29;47011;-86
2023/07/21 05:19:49;;;;;;;;;3.33;3.33;;;;;19.81;65.16;100532.09;4880021;29;45225;-85
2023/07/21 05:22:16;;;;;;;;;6.00;5.00;;;;;19.94;65.72;100543.44;4879901;29;44800;-85
2023/07/21 05:24:41;;;;;;;;;5.00;5.00;;;;;19.80;65.76;100534.84;4879503;29;44897;-86
2023/07/21 05:27:07;;;;;;;;;6.00;5.00;;;;;19.88;66.70;100543.63;4879330;29;47627;-84
2023/07/21 05:29:34;;;;;;;;;4.00;4.00;;;;;19.69;65.48;100519.81;4878283;29;44808;-85
2023/07/21 05:32:01;;;;;;;;;4.67;4.00;;;;;19.62;66.32;100502.00;4879303;29;44804;-85
2023/07/21 05:34:26;;;;;;;;;3.67;3.67;;;;;19.86;66.85;100513.09;4878172;29;45255;-86
2023/07/21 05:36:52;;;;;;;;;6.67;5.67;;;;;19.78;65.92;100521.38;4878886;29;45448;-85
2023/07/21 05:39:17;;;;;;;;;4.33;4.33;;;;;19.85;65.59;100511.31;4893608;29;44839;-86
2023/07/21 05:41:43;;;;;;;;;2.33;2.33;;;;;19.95;65.25;100543.38;4880367;29;44793;-86
2023/07/21 05:44:09;;;;;;;;;3.00;3.00;;;;;19.86;64.37;100518.47;4894447;29;44869;-85
2023/07/21 05:46:38;;;;;;;;;2.00;2.00;;;;;20.00;64.00;100556.78;4876812;29;47022;-84
2023/07/21 05:49:05;;;;;;;;;5.00;4.00;;;;;19.75;64.04;100525.06;4876941;29;44964;-85
2023/07/21 05:51:31;;;;;;;;;3.67;3.67;;;;;19.78;63.73;100518.69;4877364;29;44838;-85
2023/07/21 05:53:56;;;;;;;;;4.00;4.00;;;;;19.77;63.11;100517.81;4895074;29;44960;-84
2023/07/21 05:56:25;;;;;;;;;3.00;3.00;;;;;19.98;62.73;100550.53;4876764;29;47144;-85
2023/07/21 05:58:50;;;;;;;;;5.00;5.00;;;;;20.02;62.04;100562.09;4877945;29;44753;-86
2023/07/21 06:01:16;;;;;;;;;6.00;6.00;;;;;20.03;62.22;100555.78;4879581;29;45250;-85
2023/07/21 06:03:45;;;;;;;;;5.00;4.00;;;;;19.88;61.56;100516.63;4878761;29;44806;-86
2023/07/21 06:06:14;;;;;;;;;5.33;5.33;;;;;20.02;61.14;100554.91;4862739;29;47397;-85
2023/07/21 06:08:39;;;;;;;;;5.00;5.00;;;;;19.87;61.34;100504.91;4880150;29;44895;-86
2023/07/21 06:11:04;;;;;;;;;5.00;5.00;;;;;20.21;60.95;100552.56;4863158;29;44749;-85
2023/07/21 06:13:30;;;;;;;;;6.00;6.00;;;;;20.23;60.42;100528.22;4879704;29;45236;-86
2023/07/21 06:16:53;;;;;;;;;5.67;5.67;;;;;20.50;60.10;100553.50;4879466;29;45321;-86
2023/07/21 06:19:26;;;;;;;;;9.00;6.00;;;;;20.53;59.86;100554.31;4975828;23;45138;-85
2023/07/21 06:21:51;;;;;;;;;7.00;6.67;;;;;20.18;59.92;100504.06;4864733;29;44792;-85
2023/07/21 06:24:20;;;;;;;;;8.00;7.67;;;;;20.43;60.12;100542.03;4864094;29;44790;-85
2023/07/21 06:26:55;;;;;;;;;7.00;7.00;;;;;20.36;59.77;100556.66;4864819;29;45677;-85
2023/07/21 06:29:21;;;;;;;;;10.00;10.00;;;;;20.36;60.34;100565.63;4863324;29;44924;-86
2023/07/21 06:31:47;;;;;;;;;9.00;9.00;;;;;20.25;60.21;100529.06;4863808;29;45275;-84
2023/07/21 06:34:19;;;;;;;;;7.67;7.67;;;;;20.12;60.35;100517.75;4864728;29;44897;-85
2023/07/21 06:36:44;;;;;;;;;9.33;9.00;;;;;20.25;60.37;100556.06;4863713;29;47237;-86
2023/07/21 06:39:10;;;;;;;;;7.00;7.00;;;;;20.21;60.55;100552.56;4862415;29;44909;-86
2023/07/21 06:48:27;;;;;;;;;10.33;10.33;;;;;20.30;61.24;100562.19;4863343;29;45127;-85
2023/07/21 06:50:57;;;;;;;;;11.00;10.33;;;;;20.12;61.80;100548.31;4860721;29;44783;-85
2023/07/21 06:53:27;;;;;;;;;6.00;6.00;;;;;20.11;62.05;100541.13;4861228;29;45313;-86
2023/07/21 06:55:54;;;;;;;;;7.67;7.67;;;;;20.17;62.06;100551.75;4854346;29;45135;-83
2023/07/21 06:58:54;;;;;;;;;8.00;8.00;;;;;20.38;61.98;100552.97;4855508;29;46039;-84
2023/07/21 07:01:28;;;;;;;;;6.00;5.33;;;;;20.28;61.81;100531.66;4861390;29;44847;-83
2023/07/21 07:03:55;;;;;;;;;7.00;6.00;;;;;20.28;61.87;100540.66;4858939;29;44873;-83
2023/07/21 07:06:30;;;;;;;;;7.00;7.00;;;;;20.09;61.70;100518.69;4857570;29;44833;-83
2023/07/21 07:08:58;;;;;;;;;8.33;7.33;;;;;20.04;62.37;100533.28;4854577;29;47129;-85
2023/07/21 07:11:29;;;;;;;;;8.00;8.00;;;;;20.17;62.71;100551.75;4855773;29;44861;-86
2023/07/21 07:13:58;;;;;;;;;9.33;8.33;;;;;20.04;62.83;100517.09;4845527;29;44889;-84
2023/07/21 07:16:30;;;;;;;;;5.00;5.00;;;;;20.18;63.09;100556.25;4839611;29;45219;-82
2023/07/21 07:19:06;;;;;;;;;7.67;7.00;;;;;20.02;63.57;100546.81;4838592;29;45475;-82
2023/07/21 07:21:35;;;;;;;;;6.33;5.67;;;;;19.99;64.00;100557.69;4835178;29;45050;-83
2023/07/21 07:24:15;;;;;;;;;9.33;8.00;;;;;19.99;64.12;100546.88;4846152;29;45310;-83
2023/07/21 07:26:40;;;;;;;;;6.00;6.00;;;;;19.93;64.80;100553.34;4839988;29;44803;-85
2023/07/21 07:29:09;;;;;;;;;5.00;5.00;;;;;20.02;65.75;100541.41;4824069;29;46692;-82
2023/07/21 07:31:37;;;;;;;;;5.00;5.00;;;;;20.27;64.65;100551.50;4836129;29;45358;-85
2023/07/21 07:34:06;;;;;;;;;7.00;7.00;;;;;20.64;64.02;100566.66;4828110;29;44883;-83
2023/07/21 07:37:26;;;;;;;;;9.00;8.00;;;;;20.76;63.56;100544.66;4823153;29;44930;-83
2023/07/21 07:40:05;;;;;;;;;8.33;7.33;;;;;20.85;63.96;100538.09;4838797;29;45588;-82
2023/07/21 07:42:40;;;;;;;;;9.00;6.00;;;;;20.99;63.71;100581.78;4828499;29;45451;-84
2023/07/21 07:51:52;;;;;;;;;8.00;8.00;;;;;20.82;63.65;100581.41;4848367;29;44992;-82
2023/07/21 07:54:39;;;;;;;;;7.67;7.67;;;;;20.47;64.28;100546.41;4845831;29;44965;-87
2023/07/21 07:57:08;;;;;;;;;9.00;9.00;;;;;20.42;66.38;100556.47;4844447;29;45165;-82
2023/07/21 07:59:36;;;;;;;;;7.67;7.67;;;;;20.48;65.28;100555.38;4825130;29;45398;-83
2023/07/21 08:02:05;;;;;;;;;9.33;8.00;;;;;20.82;65.38;100570.59;4837671;29;45327;-82
2023/07/21 08:04:34;;;;;;;;;8.67;8.67;;;;;20.96;64.86;100562.94;4845916;29;45361;-82
2023/07/21 08:07:08;;;;;;;;;8.33;8.33;;;;;21.40;64.11;100579.56;4833868;29;45038;-82
2023/07/21 08:09:36;;;;;;;;;10.00;8.00;;;;;21.52;63.95;100545.81;4839707;29;44842;-83
2023/07/21 08:12:23;;;;;;;;;14.67;11.33;;;;;21.96;62.98;100568.63;4827850;29;47339;-86
2023/07/21 08:14:54;;;;;;;;;11.33;11.00;;;;;22.02;62.15;100553.97;4830305;29;44890;-83
2023/07/21 08:17:29;;;;;;;;;11.00;10.00;;;;;22.20;61.42;100559.63;4843239;29;44817;-83
2023/07/21 08:20:26;;;;;;;;;13.67;11.00;;;;;22.71;60.71;100583.06;4844966;29;44909;-85
2023/07/21 08:23:36;;;;;;;;;11.33;11.33;;;;;22.41;60.51;100561.59;4820425;29;46340;-84
2023/07/21 08:26:10;;;;;;;;;10.67;10.67;;;;;22.34;60.55;100568.19;4780869;29;45632;-83
2023/07/21 08:28:59;;;;;;;;;10.67;10.33;;;;;22.28;60.30;100546.72;4780861;29;45010;-84
2023/07/21 08:31:30;;;;;;;;;11.00;11.00;;;;;22.45;60.58;100575.91;4778356;29;44905;-84
2023/07/21 08:33:55;;;;;;;;;11.00;9.00;;;;;22.44;59.65;100569.63;4778047;29;45535;-86
2023/07/21 08:36:33;;;;;;;;;8.00;8.00;;;;;22.44;59.66;100542.53;4762134;29;45568;-85
2023/07/21 08:43:17;;;;;;;;;11.00;11.00;;;;;22.99;57.53;100592.81;4783442;29;44918;-84
2023/07/21 08:46:17;;;;;;;;;;;;;;;;;;;;;
2023/07/21 09:01:14;;;;;;;;;17.00;12.00;;;;;22.93;55.91;100543.28;4350261;23;45387;-83
2023/07/21 09:03:46;;;;;;;;;11.00;11.00;;;;;23.40;55.97;100580.28;4858061;29;44964;-82
2023/07/21 09:06:50;;;;;;;;;;;;;;;;;;;;;
2023/07/21 09:09:57;;;;;;;;;9.33;9.33;;;;;23.80;54.66;100589.50;4860259;29;74372;-87
2023/07/21 09:15:44;;;;;;;;;9.67;9.67;;;;;23.85;52.95;100592.00;5477583;23;45383;31
2023/07/21 09:18:43;;;;;;;;;13.67;10.67;;;;;23.54;53.25;100586.03;4835555;29;46053;-84
2023/07/21 09:21:37;;;;;;;;;12.00;11.67;;;;;23.39;54.42;100553.22;4847580;29;47110;-86
2023/07/21 09:24:09;;;;;;;;;12.00;10.33;;;;;23.35;53.27;100556.06;4837845;29;44945;-87
2023/07/21 09:26:38;;;;;;;;;10.33;10.33;;;;;23.11;53.08;100562.50;4837283;29;45453;-81
2023/07/21 09:29:16;;;;;;;;;12.67;11.00;;;;;23.30;53.56;100581.63;4843681;29;44903;-87
2023/07/21 09:34:30;;;;;;;;;11.00;10.00;;;;;23.86;53.82;100574.78;4663736;27;45082;-82
2023/07/21 09:37:30;;;;;;;;;7.33;7.33;;;;;24.01;52.05;100557.78;4824337;29;44924;-85
2023/07/21 09:40:15;;;;;;;;;9.33;8.00;;;;;24.01;51.74;100571.34;4783565;29;45048;-85
2023/07/21 09:46:52;;;;;;;;;12.67;12.67;;;;;24.53;51.78;100589.88;4793609;29;44902;-84
2023/07/21 09:52:28;;;;;;;;;8.67;8.67;;;;;24.73;50.21;100584.41;4792679;29;44965;-86
2023/07/21 09:55:09;;;;;;;;;8.67;8.67;;;;;24.66;49.70;100573.88;4785134;29;46845;-83
2023/07/21 10:04:15;;;;;;;;;8.67;7.67;;;;;24.67;49.16;100573.81;4760349;29;45509;-85
2023/07/21 10:06:46;;;;;;;;;7.33;7.00;;;;;24.72;49.09;100592.63;4756937;29;45618;-82
2023/07/21 10:09:12;;;;;;;;;6.00;6.00;;;;;24.47;48.45;100577.44;4759825;29;44904;-84
2023/07/21 10:11:43;;;;;;;;;7.67;7.67;;;;;24.66;48.17;100592.91;4765623;29;45046;-82
2023/07/21 10:14:36;;;;;;;;;5.67;5.67;;;;;24.80;47.23;100598.56;4763254;29;45033;-83
2023/07/21 10:17:08;;;;;;;;;6.33;6.33;;;;;24.64;47.67;100582.13;4760870;29;47082;-82
2023/07/21 10:23:35;;;;;;;;;;;;;;;;;;;;;
2023/07/21 10:26:07;;;;;;;;;7.00;6.67;;;;;24.69;47.36;100560.16;4874554;29;65133;-86
2023/07/21 10:34:20;;;;;;;;;6.67;6.67;;;;;25.26;46.00;100601.84;4477609;23;46085;-84
2023/07/21 10:37:31;;;;;;;;;8.00;8.00;;;;;24.98;46.30;100574.19;4896008;23;44862;-83
2023/07/21 10:40:07;;;;;;;;;6.33;6.33;;;;;24.80;46.03;100587.69;4883732;29;45317;-81
2023/07/21 10:42:32;;;;;;;;;6.67;6.67;;;;;24.50;46.12;100576.44;4860687;29;44764;-81
2023/07/21 10:45:09;;;;;;;;;7.67;7.00;;;;;24.62;45.34;100581.31;4898941;28;44852;-85
2023/07/21 10:47:53;;;;;;;;;;;;;;;;;;;;;
2023/07/21 10:50:25;;;;;;;;;8.00;7.00;;;;;24.74;44.94;100579.84;4844857;29;74785;-80
2023/07/21 10:52:52;;;;;;;;;7.00;7.00;;;;;24.98;44.04;100599.53;4857254;29;44910;-83
2023/07/21 10:55:25;;;;;;;;;5.00;5.00;;;;;24.86;44.59;100575.66;4889726;29;44818;-84
2023/07/21 10:58:14;;;;;;;;;6.67;6.00;;;;;25.11;44.79;100591.69;4867222;29;45054;-84
2023/07/21 11:01:10;;;;;;;;;7.00;6.00;;;;;25.23;43.35;100593.84;4865124;29;45021;-86
2023/07/21 11:03:46;;;;;;;;;6.00;5.33;;;;;25.18;43.87;100579.53;4825195;29;45437;-84
2023/07/21 11:06:22;;;;;;;;;5.00;5.00;;;;;25.43;42.71;100573.78;4842624;29;44728;-85
2023/07/21 11:08:49;;;;;;;;;5.00;5.00;;;;;25.64;43.36;100590.88;4828752;29;44925;-85
2023/07/21 11:11:20;;;;;;;;;7.00;7.00;;;;;25.80;43.18;100560.13;4820439;29;46293;-83
2023/07/21 11:14:01;;;;;;;;;5.00;5.00;;;;;26.03;42.45;100575.28;4794278;29;45384;-85
2023/07/21 11:16:27;;;;;;;;;6.00;5.00;;;;;25.99;41.60;100560.94;4809727;29;44992;-86
2023/07/21 11:21:48;;;;;;;;;9.00;7.67;;;;;25.77;41.90;100577.47;5361036;23;46242;-82
2023/07/21 11:24:28;;;;;;;;;7.67;6.67;;;;;25.90;41.70;100584.09;4883726;29;45032;-84
2023/07/21 11:41:28;;;;;;;;;3.67;3.67;;;;;26.36;40.34;100583.50;4429578;23;45618;-83
2023/07/21 11:43:53;;;;;;;;;7.67;6.00;;;;;26.43;40.22;100576.72;4860579;29;47401;-80
2023/07/21 11:46:29;;;;;;;;;4.00;4.00;;;;;26.84;38.77;100570.84;4877140;29;44740;-80
2023/07/21 11:49:55;;;;;;;;;5.00;5.00;;;;;27.18;38.56;100568.91;4865914;29;45286;-82
2023/07/21 11:52:37;;;;;;;;;7.00;5.33;;;;;27.53;38.98;100574.19;4869717;29;44886;-82
2023/07/21 11:55:06;;;;;;;;;5.00;5.00;;;;;27.58;38.76;100554.81;4859828;29;47361;-82
2023/07/21 12:00:54;;;;;;;;;6.00;6.00;;;;;27.54;37.25;100554.09;4874656;29;44878;-84
2023/07/21 12:03:29;;;;;;;;;5.00;5.00;;;;;27.69;37.64;100552.28;4872378;29;44879;-84
2023/07/21 12:06:08;;;;;;;;;3.50;3.25;;;;;27.96;37.58;100565.31;4861674;29;45620;-82
2023/07/21 12:08:33;;;;;;;;;5.67;4.00;;;;;27.94;37.09;100546.25;4819516;29;44895;-83
2023/07/21 12:14:28;;;;;;;;;4.75;4.75;;;;;27.93;36.46;100522.63;4861958;29;44978;-83
2023/07/21 12:16:57;;;;;;;;;5.33;5.33;;;;;28.02;36.45;100560.34;4846637;29;45233;-83
2023/07/21 12:19:41;;;;;;;;;;;;;;;;;;;;;
2023/07/21 12:22:10;;;;;;;;;6.00;4.33;;;;;27.86;36.36;100521.22;4856674;29;68965;-81
2023/07/21 12:28:01;;;;;;;;;7.33;5.67;;;;;27.43;35.53;100524.72;4861618;29;45860;-85
2023/07/21 12:30:29;;;;;;;;;5.00;4.33;;;;;27.38;35.48;100525.94;4860152;29;45466;-85
2023/07/21 12:32:55;;;;;;;;;5.33;5.33;;;;;27.43;35.87;100543.84;4849133;29;45352;-85
2023/07/21 12:35:24;;;;;;;;;4.67;4.67;;;;;27.49;35.91;100507.06;4851535;29;45047;-86
2023/07/21 12:50:53;;;;;;;;;4.33;4.33;;;;;28.36;34.65;100547.28;5351086;23;46652;-84
2023/07/21 12:53:42;;;;;;;;;3.67;3.33;;;;;27.85;32.89;100516.72;4766899;29;44962;-86
2023/07/21 12:56:28;;;;;;;;;2.33;2.33;;;;;27.91;33.56;100551.91;5091318;23;46643;-83
2023/07/21 12:58:56;;;;;;;;;3.33;2.67;;;;;27.61;33.60;100522.72;5263447;23;45287;-84
2023/07/21 13:01:31;;;;;;;;;6.33;4.33;;;;;27.81;33.42;100523.34;4872754;29;45462;-84
2023/07/21 13:04:03;;;;;;;;;4.50;4.00;;;;;27.77;33.96;100519.91;4859076;29;44931;-82
2023/07/21 13:06:32;;;;;;;;;3.33;3.33;;;;;27.92;34.25;100549.06;4869469;29;45386;-84
2023/07/21 13:09:01;;;;;;;;;3.33;3.33;;;;;28.07;34.53;100529.97;4848312;29;45674;-85
2023/07/21 13:11:28;;;;;;;;;5.33;5.33;;;;;28.20;34.70;100541.91;4844485;29;47184;-85
2023/07/21 13:13:54;;;;;;;;;5.00;5.00;;;;;28.49;34.04;100552.84;4850163;29;45534;-83
2023/07/21 13:16:39;;;;;;;;;4.33;3.67;;;;;28.71;33.02;100547.78;4845984;29;44946;-84
2023/07/21 13:41:03;;;;;;;;;5.33;5.33;;;;;28.07;33.90;100522.63;4831154;29;45003;-83
2023/07/21 13:43:40;;;;;;;;;7.00;7.00;;;;;27.91;34.06;100524.56;4850269;29;45208;-85
2023/07/21 13:46:17;;;;;;;;;4.33;4.33;;;;;27.79;33.55;100519.81;4849317;29;44898;-85
2023/07/21 13:49:48;;;;;;;;;9.00;6.00;;;;;28.19;34.65;100550.19;4843816;29;45462;-88
2023/07/21 14:01:59;;;;;;;;;5.33;4.67;;;;;29.01;33.26;100548.63;4767049;29;44944;-85
2023/07/21 14:05:25;;;;;;;;;5.33;5.33;;;;;30.12;31.45;100544.72;4767981;29;45613;-85
2023/07/21 14:12:42;;;;;;;;;2.33;2.33;;;;;28.70;31.46;100524.16;4760175;29;45518;-85
2023/07/21 14:22:41;;;;;;;;;;;;;;;;;;;;;
2023/07/21 14:25:56;;;;;;;;;;;;;;;;;;;;;
2023/07/21 14:46:11;;;;;;;;;4.00;4.00;;;;;31.39;29.32;100544.59;4866178;29;45324;-85
2023/07/21 14:49:04;;;;;;;;;4.33;4.33;;;;;31.27;30.36;100536.31;4859570;29;45142;-84
2023/07/21 14:55:42;;;;;;;;;3.67;3.67;;;;;30.11;30.81;100575.88;4857303;29;45167;-83
2023/07/21 15:34:05;;;;;;;;;6.00;4.33;;;;;32.01;27.85;100552.66;2550793;23;45899;-85